sensor_id;sensor_type;location;lat;lon;timestamp;P1;durP1;ratioP1;P2;durP2;ratioP2
32455;SDS011;18912;43.270;27.942;2023-03-15T00:00:40;14.07;;;3.03;;
32455;SDS011;18912;43.270;27.942;2023-03-15T00:03:06;7.72;;;2.70;;
32455;SDS011;18912;43.270;27.942;2023-03-15T00:05:32;7.30;;;2.75;;
32455;SDS011;18912;43.270;27.942;2023-03-15T00:07:58;13.87;;;2.97;;
32455;SDS011;18912;43.270;27.942;2023-03-15T00:10:23;7.10;;;3.00;;
32455;SDS011;18912;43.270;27.942;2023-03-15T00:12:49;10.77;;;2.90;;
32455;SDS011;18912;43.270;27.942;2023-03-15T00:15:14;8.03;;;2.50;;
32455;SDS011;18912;43.270;27.942;2023-03-15T00:17:40;4.63;;;2.13;;
32455;SDS011;18912;43.270;27.942;2023-03-15T00:20:06;8.30;;;2.67;;
32455;SDS011;18912;43.270;27.942;2023-03-15T00:22:32;5.03;;;2.67;;
32455;SDS011;18912;43.270;27.942;2023-03-15T00:24:57;13.83;;;2.83;;
32455;SDS011;18912;43.270;27.942;2023-03-15T00:27:23;14.97;;;3.00;;
32455;SDS011;18912;43.270;27.942;2023-03-15T00:29:48;29.73;;;5.23;;
32455;SDS011;18912;43.270;27.942;2023-03-15T00:32:14;7.57;;;2.83;;
32455;SDS011;18912;43.270;27.942;2023-03-15T00:34:39;5.80;;;2.58;;
32455;SDS011;18912;43.270;27.942;2023-03-15T00:37:05;6.13;;;2.60;;
32455;SDS011;18912;43.270;27.942;2023-03-15T00:39:30;14.77;;;2.93;;
32455;SDS011;18912;43.270;27.942;2023-03-15T00:42:01;16.77;;;3.20;;
32455;SDS011;18912;43.270;27.942;2023-03-15T00:44:28;8.48;;;2.97;;
32455;SDS011;18912;43.270;27.942;2023-03-15T00:46:54;13.93;;;4.07;;
32455;SDS011;18912;43.270;27.942;2023-03-15T00:49:20;10.37;;;2.80;;
32455;SDS011;18912;43.270;27.942;2023-03-15T00:51:45;14.77;;;3.33;;
32455;SDS011;18912;43.270;27.942;2023-03-15T00:54:11;15.97;;;2.73;;
32455;SDS011;18912;43.270;27.942;2023-03-15T00:56:38;13.18;;;2.90;;
32455;SDS011;18912;43.270;27.942;2023-03-15T00:59:04;11.27;;;2.58;;
32455;SDS011;18912;43.270;27.942;2023-03-15T01:01:29;15.83;;;2.60;;
32455;SDS011;18912;43.270;27.942;2023-03-15T01:03:55;8.17;;;2.63;;
32455;SDS011;18912;43.270;27.942;2023-03-15T01:06:22;9.60;;;3.28;;
32455;SDS011;18912;43.270;27.942;2023-03-15T01:08:49;12.20;;;3.00;;
32455;SDS011;18912;43.270;27.942;2023-03-15T01:11:19;5.88;;;2.60;;
32455;SDS011;18912;43.270;27.942;2023-03-15T01:13:48;9.10;;;2.60;;
32455;SDS011;18912;43.270;27.942;2023-03-15T01:16:16;12.65;;;2.80;;
32455;SDS011;18912;43.270;27.942;2023-03-15T01:18:42;9.85;;;3.85;;
32455;SDS011;18912;43.270;27.942;2023-03-15T01:21:09;11.30;;;3.40;;
32455;SDS011;18912;43.270;27.942;2023-03-15T01:23:36;6.70;;;2.92;;
32455;SDS011;18912;43.270;27.942;2023-03-15T01:26:02;14.77;;;3.60;;
32455;SDS011;18912;43.270;27.942;2023-03-15T01:28:29;10.10;;;2.95;;
32455;SDS011;18912;43.270;27.942;2023-03-15T01:30:55;8.27;;;2.43;;
32455;SDS011;18912;43.270;27.942;2023-03-15T01:33:20;17.77;;;3.27;;
32455;SDS011;18912;43.270;27.942;2023-03-15T01:35:46;12.52;;;3.28;;
32455;SDS011;18912;43.270;27.942;2023-03-15T01:38:12;8.13;;;2.75;;
32455;SDS011;18912;43.270;27.942;2023-03-15T01:40:41;11.27;;;3.17;;
32455;SDS011;18912;43.270;27.942;2023-03-15T01:43:19;11.60;;;2.95;;
32455;SDS011;18912;43.270;27.942;2023-03-15T01:48:17;12.82;;;2.70;;
32455;SDS011;18912;43.270;27.942;2023-03-15T01:50:46;6.65;;;3.40;;
32455;SDS011;18912;43.270;27.942;2023-03-15T01:53:12;10.43;;;3.70;;
32455;SDS011;18912;43.270;27.942;2023-03-15T01:55:38;5.43;;;2.70;;
32455;SDS011;18912;43.270;27.942;2023-03-15T01:58:05;10.93;;;3.03;;
32455;SDS011;18912;43.270;27.942;2023-03-15T02:03:11;9.52;;;2.83;;
32455;SDS011;18912;43.270;27.942;2023-03-15T02:05:51;8.55;;;2.90;;
32455;SDS011;18912;43.270;27.942;2023-03-15T02:08:21;10.65;;;3.15;;
32455;SDS011;18912;43.270;27.942;2023-03-15T02:10:51;10.63;;;3.45;;
32455;SDS011;18912;43.270;27.942;2023-03-15T02:13:19;17.25;;;5.80;;
32455;SDS011;18912;43.270;27.942;2023-03-15T02:15:47;14.77;;;4.43;;
32455;SDS011;18912;43.270;27.942;2023-03-15T02:18:13;13.75;;;3.40;;
32455;SDS011;18912;43.270;27.942;2023-03-15T02:23:26;9.85;;;3.45;;
32455;SDS011;18912;43.270;27.942;2023-03-15T02:28:27;16.00;;;4.38;;
32455;SDS011;18912;43.270;27.942;2023-03-15T02:30:53;13.10;;;3.40;;
32455;SDS011;18912;43.270;27.942;2023-03-15T02:33:34;12.02;;;4.30;;
32455;SDS011;18912;43.270;27.942;2023-03-15T02:36:13;10.05;;;3.08;;
32455;SDS011;18912;43.270;27.942;2023-03-15T02:38:45;12.57;;;3.90;;
32455;SDS011;18912;43.270;27.942;2023-03-15T02:43:39;7.72;;;3.40;;
32455;SDS011;18912;43.270;27.942;2023-03-15T02:46:06;9.05;;;3.65;;
32455;SDS011;18912;43.270;27.942;2023-03-15T02:48:32;11.07;;;4.22;;
32455;SDS011;18912;43.270;27.942;2023-03-15T02:50:59;14.98;;;4.65;;
32455;SDS011;18912;43.270;27.942;2023-03-15T02:55:52;13.50;;;6.32;;
32455;SDS011;18912;43.270;27.942;2023-03-15T02:58:18;24.17;;;10.63;;
32455;SDS011;18912;43.270;27.942;2023-03-15T03:00:43;22.27;;;8.00;;
32455;SDS011;18912;43.270;27.942;2023-03-15T03:03:09;14.83;;;5.20;;
32455;SDS011;18912;43.270;27.942;2023-03-15T03:05:35;6.50;;;3.35;;
32455;SDS011;18912;43.270;27.942;2023-03-15T03:08:01;11.63;;;3.65;;
32455;SDS011;18912;43.270;27.942;2023-03-15T03:10:27;9.90;;;3.23;;
32455;SDS011;18912;43.270;27.942;2023-03-15T03:12:52;12.75;;;3.58;;
32455;SDS011;18912;43.270;27.942;2023-03-15T03:15:18;10.87;;;3.03;;
32455;SDS011;18912;43.270;27.942;2023-03-15T03:17:45;8.05;;;3.17;;
32455;SDS011;18912;43.270;27.942;2023-03-15T03:20:11;13.23;;;3.65;;
32455;SDS011;18912;43.270;27.942;2023-03-15T03:22:38;15.45;;;3.80;;
32455;SDS011;18912;43.270;27.942;2023-03-15T03:25:06;12.32;;;3.60;;
32455;SDS011;18912;43.270;27.942;2023-03-15T03:27:33;13.02;;;3.70;;
32455;SDS011;18912;43.270;27.942;2023-03-15T03:30:03;13.27;;;3.33;;
32455;SDS011;18912;43.270;27.942;2023-03-15T03:32:30;11.38;;;3.20;;
32455;SDS011;18912;43.270;27.942;2023-03-15T03:34:55;11.85;;;3.08;;
32455;SDS011;18912;43.270;27.942;2023-03-15T03:37:21;20.03;;;2.97;;
32455;SDS011;18912;43.270;27.942;2023-03-15T03:39:47;9.23;;;2.77;;
32455;SDS011;18912;43.270;27.942;2023-03-15T03:42:12;9.73;;;2.60;;
32455;SDS011;18912;43.270;27.942;2023-03-15T03:44:39;13.90;;;3.13;;
32455;SDS011;18912;43.270;27.942;2023-03-15T03:47:07;7.18;;;2.72;;
32455;SDS011;18912;43.270;27.942;2023-03-15T03:49:32;15.83;;;3.83;;
32455;SDS011;18912;43.270;27.942;2023-03-15T03:51:58;12.50;;;2.83;;
32455;SDS011;18912;43.270;27.942;2023-03-15T03:54:26;6.80;;;2.80;;
32455;SDS011;18912;43.270;27.942;2023-03-15T03:56:52;8.50;;;3.27;;
32455;SDS011;18912;43.270;27.942;2023-03-15T03:59:18;12.20;;;3.87;;
32455;SDS011;18912;43.270;27.942;2023-03-15T04:01:43;11.13;;;3.50;;
32455;SDS011;18912;43.270;27.942;2023-03-15T04:04:09;8.50;;;3.10;;
32455;SDS011;18912;43.270;27.942;2023-03-15T04:06:38;10.05;;;3.17;;
32455;SDS011;18912;43.270;27.942;2023-03-15T04:09:10;12.65;;;2.92;;
32455;SDS011;18912;43.270;27.942;2023-03-15T04:11:38;7.80;;;2.67;;
32455;SDS011;18912;43.270;27.942;2023-03-15T04:14:06;9.32;;;2.90;;
32455;SDS011;18912;43.270;27.942;2023-03-15T04:16:33;13.02;;;4.20;;
32455;SDS011;18912;43.270;27.942;2023-03-15T04:18:58;5.97;;;2.73;;
32455;SDS011;18912;43.270;27.942;2023-03-15T04:21:24;9.83;;;3.17;;
32455;SDS011;18912;43.270;27.942;2023-03-15T04:23:49;7.00;;;2.80;;
32455;SDS011;18912;43.270;27.942;2023-03-15T04:26:15;10.50;;;2.50;;
32455;SDS011;18912;43.270;27.942;2023-03-15T04:28:40;13.03;;;3.50;;
32455;SDS011;18912;43.270;27.942;2023-03-15T04:31:06;9.70;;;3.40;;
32455;SDS011;18912;43.270;27.942;2023-03-15T04:33:34;9.48;;;3.13;;
32455;SDS011;18912;43.270;27.942;2023-03-15T04:36:00;9.13;;;3.55;;
32455;SDS011;18912;43.270;27.942;2023-03-15T04:38:26;9.00;;;2.83;;
32455;SDS011;18912;43.270;27.942;2023-03-15T04:40:52;15.55;;;3.25;;
32455;SDS011;18912;43.270;27.942;2023-03-15T04:45:44;17.25;;;5.03;;
32455;SDS011;18912;43.270;27.942;2023-03-15T04:48:10;11.60;;;3.07;;
32455;SDS011;18912;43.270;27.942;2023-03-15T04:50:35;7.67;;;3.53;;
32455;SDS011;18912;43.270;27.942;2023-03-15T04:53:01;11.63;;;3.57;;
32455;SDS011;18912;43.270;27.942;2023-03-15T04:55:26;12.13;;;3.87;;
32455;SDS011;18912;43.270;27.942;2023-03-15T04:57:52;4.67;;;2.83;;
32455;SDS011;18912;43.270;27.942;2023-03-15T05:00:18;11.18;;;3.08;;
32455;SDS011;18912;43.270;27.942;2023-03-15T05:02:43;9.70;;;2.65;;
32455;SDS011;18912;43.270;27.942;2023-03-15T05:05:11;16.05;;;3.20;;
32455;SDS011;18912;43.270;27.942;2023-03-15T05:07:37;12.13;;;3.20;;
32455;SDS011;18912;43.270;27.942;2023-03-15T05:10:04;11.15;;;2.95;;
32455;SDS011;18912;43.270;27.942;2023-03-15T05:12:31;10.50;;;3.40;;
32455;SDS011;18912;43.270;27.942;2023-03-15T05:14:57;7.57;;;2.65;;
32455;SDS011;18912;43.270;27.942;2023-03-15T05:17:23;15.10;;;3.10;;
32455;SDS011;18912;43.270;27.942;2023-03-15T05:19:48;8.63;;;2.60;;
32455;SDS011;18912;43.270;27.942;2023-03-15T05:22:15;11.23;;;3.38;;
32455;SDS011;18912;43.270;27.942;2023-03-15T05:24:41;8.40;;;2.83;;
32455;SDS011;18912;43.270;27.942;2023-03-15T05:27:07;9.00;;;3.78;;
32455;SDS011;18912;43.270;27.942;2023-03-15T05:29:33;7.37;;;2.60;;
32455;SDS011;18912;43.270;27.942;2023-03-15T05:31:58;9.63;;;3.03;;
32455;SDS011;18912;43.270;27.942;2023-03-15T05:34:28;14.23;;;3.13;;
32455;SDS011;18912;43.270;27.942;2023-03-15T05:36:54;9.35;;;2.22;;
32455;SDS011;18912;43.270;27.942;2023-03-15T05:39:19;6.93;;;2.50;;
32455;SDS011;18912;43.270;27.942;2023-03-15T05:41:46;11.48;;;3.28;;
32455;SDS011;18912;43.270;27.942;2023-03-15T05:44:12;6.57;;;2.10;;
32455;SDS011;18912;43.270;27.942;2023-03-15T05:46:37;14.97;;;2.60;;
32455;SDS011;18912;43.270;27.942;2023-03-15T05:49:03;12.87;;;2.93;;
32455;SDS011;18912;43.270;27.942;2023-03-15T05:51:28;12.93;;;3.30;;
32455;SDS011;18912;43.270;27.942;2023-03-15T05:53:54;5.90;;;2.20;;
32455;SDS011;18912;43.270;27.942;2023-03-15T05:56:19;9.70;;;3.50;;
32455;SDS011;18912;43.270;27.942;2023-03-15T05:58:45;10.57;;;2.63;;
32455;SDS011;18912;43.270;27.942;2023-03-15T06:01:10;17.17;;;3.67;;
32455;SDS011;18912;43.270;27.942;2023-03-15T06:03:35;10.50;;;2.80;;
32455;SDS011;18912;43.270;27.942;2023-03-15T06:06:01;18.33;;;3.20;;
32455;SDS011;18912;43.270;27.942;2023-03-15T06:08:27;9.93;;;2.92;;
32455;SDS011;18912;43.270;27.942;2023-03-15T06:10:53;18.90;;;2.63;;
32455;SDS011;18912;43.270;27.942;2023-03-15T06:13:18;5.70;;;1.83;;
32455;SDS011;18912;43.270;27.942;2023-03-15T06:15:47;5.87;;;1.80;;
32455;SDS011;18912;43.270;27.942;2023-03-15T06:18:12;8.05;;;2.10;;
32455;SDS011;18912;43.270;27.942;2023-03-15T06:20:41;12.53;;;2.43;;
32455;SDS011;18912;43.270;27.942;2023-03-15T06:23:07;10.25;;;2.10;;
32455;SDS011;18912;43.270;27.942;2023-03-15T06:25:33;11.60;;;2.60;;
32455;SDS011;18912;43.270;27.942;2023-03-15T06:27:58;7.07;;;2.13;;
32455;SDS011;18912;43.270;27.942;2023-03-15T06:30:23;4.90;;;1.90;;
32455;SDS011;18912;43.270;27.942;2023-03-15T06:32:50;9.73;;;2.63;;
32455;SDS011;18912;43.270;27.942;2023-03-15T06:35:16;13.20;;;2.60;;
32455;SDS011;18912;43.270;27.942;2023-03-15T06:37:41;6.17;;;2.17;;
32455;SDS011;18912;43.270;27.942;2023-03-15T06:40:07;6.13;;;1.63;;
32455;SDS011;18912;43.270;27.942;2023-03-15T06:42:34;11.88;;;2.65;;
32455;SDS011;18912;43.270;27.942;2023-03-15T06:45:00;13.02;;;2.88;;
32455;SDS011;18912;43.270;27.942;2023-03-15T06:47:26;14.77;;;2.42;;
32455;SDS011;18912;43.270;27.942;2023-03-15T06:49:52;5.75;;;1.98;;
32455;SDS011;18912;43.270;27.942;2023-03-15T06:52:17;5.17;;;1.87;;
32455;SDS011;18912;43.270;27.942;2023-03-15T06:54:43;13.53;;;2.50;;
32455;SDS011;18912;43.270;27.942;2023-03-15T06:57:08;5.50;;;2.13;;
32455;SDS011;18912;43.270;27.942;2023-03-15T06:59:34;7.93;;;1.90;;
32455;SDS011;18912;43.270;27.942;2023-03-15T07:01:59;11.60;;;3.20;;
32455;SDS011;18912;43.270;27.942;2023-03-15T07:04:25;7.70;;;1.73;;
32455;SDS011;18912;43.270;27.942;2023-03-15T07:06:51;11.73;;;2.22;;
32455;SDS011;18912;43.270;27.942;2023-03-15T07:09:16;8.37;;;2.20;;
32455;SDS011;18912;43.270;27.942;2023-03-15T07:11:42;5.03;;;2.00;;
32455;SDS011;18912;43.270;27.942;2023-03-15T07:14:07;13.63;;;2.87;;
32455;SDS011;18912;43.270;27.942;2023-03-15T07:16:33;11.37;;;2.57;;
32455;SDS011;18912;43.270;27.942;2023-03-15T07:18:59;7.43;;;2.80;;
32455;SDS011;18912;43.270;27.942;2023-03-15T07:21:25;5.30;;;2.22;;
32455;SDS011;18912;43.270;27.942;2023-03-15T07:23:51;10.50;;;2.65;;
32455;SDS011;18912;43.270;27.942;2023-03-15T07:26:17;12.38;;;2.60;;
32455;SDS011;18912;43.270;27.942;2023-03-15T07:28:43;9.40;;;2.80;;
32455;SDS011;18912;43.270;27.942;2023-03-15T07:31:09;12.67;;;2.63;;
32455;SDS011;18912;43.270;27.942;2023-03-15T07:36:02;11.20;;;2.50;;
32455;SDS011;18912;43.270;27.942;2023-03-15T07:38:29;10.77;;;2.65;;
32455;SDS011;18912;43.270;27.942;2023-03-15T07:40:56;8.18;;;2.42;;
32455;SDS011;18912;43.270;27.942;2023-03-15T07:43:21;7.03;;;2.37;;
32455;SDS011;18912;43.270;27.942;2023-03-15T07:45:48;20.17;;;3.70;;
32455;SDS011;18912;43.270;27.942;2023-03-15T07:48:14;6.22;;;2.88;;
32455;SDS011;18912;43.270;27.942;2023-03-15T07:50:40;12.93;;;2.93;;
32455;SDS011;18912;43.270;27.942;2023-03-15T07:53:05;7.53;;;3.10;;
32455;SDS011;18912;43.270;27.942;2023-03-15T07:55:31;11.90;;;3.13;;
32455;SDS011;18912;43.270;27.942;2023-03-15T07:57:58;15.77;;;3.42;;
32455;SDS011;18912;43.270;27.942;2023-03-15T08:00:23;10.43;;;4.33;;
32455;SDS011;18912;43.270;27.942;2023-03-15T08:02:49;9.93;;;2.73;;
32455;SDS011;18912;43.270;27.942;2023-03-15T08:05:14;13.30;;;4.00;;
32455;SDS011;18912;43.270;27.942;2023-03-15T08:07:43;13.60;;;3.60;;
32455;SDS011;18912;43.270;27.942;2023-03-15T08:10:10;11.07;;;2.72;;
32455;SDS011;18912;43.270;27.942;2023-03-15T08:12:36;15.55;;;3.67;;
32455;SDS011;18912;43.270;27.942;2023-03-15T08:15:04;12.70;;;2.78;;
32455;SDS011;18912;43.270;27.942;2023-03-15T08:17:29;6.70;;;1.77;;
32455;SDS011;18912;43.270;27.942;2023-03-15T08:19:55;19.77;;;3.30;;
32455;SDS011;18912;43.270;27.942;2023-03-15T08:22:20;11.87;;;2.30;;
32455;SDS011;18912;43.270;27.942;2023-03-15T08:24:45;8.77;;;2.83;;
32455;SDS011;18912;43.270;27.942;2023-03-15T08:27:11;8.43;;;2.57;;
32455;SDS011;18912;43.270;27.942;2023-03-15T08:29:36;24.50;;;3.50;;
32455;SDS011;18912;43.270;27.942;2023-03-15T08:32:02;14.47;;;2.60;;
32455;SDS011;18912;43.270;27.942;2023-03-15T08:34:28;18.03;;;4.10;;
32455;SDS011;18912;43.270;27.942;2023-03-15T08:36:53;14.23;;;3.53;;
32455;SDS011;18912;43.270;27.942;2023-03-15T08:39:18;11.27;;;3.53;;
32455;SDS011;18912;43.270;27.942;2023-03-15T08:41:44;11.53;;;2.40;;
32455;SDS011;18912;43.270;27.942;2023-03-15T08:44:11;18.75;;;3.80;;
32455;SDS011;18912;43.270;27.942;2023-03-15T08:46:36;11.93;;;4.53;;
32455;SDS011;18912;43.270;27.942;2023-03-15T08:49:02;18.47;;;4.97;;
32455;SDS011;18912;43.270;27.942;2023-03-15T08:51:27;13.50;;;4.20;;
32455;SDS011;18912;43.270;27.942;2023-03-15T08:53:55;19.33;;;4.35;;
32455;SDS011;18912;43.270;27.942;2023-03-15T08:56:21;10.45;;;3.30;;
32455;SDS011;18912;43.270;27.942;2023-03-15T08:58:46;16.60;;;4.13;;
32455;SDS011;18912;43.270;27.942;2023-03-15T09:01:14;20.83;;;4.03;;
32455;SDS011;18912;43.270;27.942;2023-03-15T09:03:40;10.52;;;3.70;;
32455;SDS011;18912;43.270;27.942;2023-03-15T09:06:07;17.90;;;4.22;;
32455;SDS011;18912;43.270;27.942;2023-03-15T09:08:33;16.42;;;4.93;;
32455;SDS011;18912;43.270;27.942;2023-03-15T09:10:59;13.40;;;4.57;;
32455;SDS011;18912;43.270;27.942;2023-03-15T09:13:27;8.70;;;4.35;;
32455;SDS011;18912;43.270;27.942;2023-03-15T09:15:54;13.27;;;3.13;;
32455;SDS011;18912;43.270;27.942;2023-03-15T09:18:21;35.28;;;10.30;;
32455;SDS011;18912;43.270;27.942;2023-03-15T09:20:48;13.73;;;5.28;;
32455;SDS011;18912;43.270;27.942;2023-03-15T09:23:13;16.63;;;6.50;;
32455;SDS011;18912;43.270;27.942;2023-03-15T09:25:39;14.38;;;6.75;;
32455;SDS011;18912;43.270;27.942;2023-03-15T09:28:06;10.83;;;4.90;;
32455;SDS011;18912;43.270;27.942;2023-03-15T09:30:33;18.45;;;6.80;;
32455;SDS011;18912;43.270;27.942;2023-03-15T09:32:59;18.35;;;6.50;;
32455;SDS011;18912;43.270;27.942;2023-03-15T09:35:25;18.60;;;9.07;;
32455;SDS011;18912;43.270;27.942;2023-03-15T09:37:50;18.40;;;5.37;;
32455;SDS011;18912;43.270;27.942;2023-03-15T09:40:18;22.53;;;6.17;;
32455;SDS011;18912;43.270;27.942;2023-03-15T09:48:50;25.85;;;8.35;;
32455;SDS011;18912;43.270;27.942;2023-03-15T09:51:58;19.02;;;8.32;;
32455;SDS011;18912;43.270;27.942;2023-03-15T09:54:25;23.88;;;9.05;;
32455;SDS011;18912;43.270;27.942;2023-03-15T09:56:59;23.35;;;12.20;;
32455;SDS011;18912;43.270;27.942;2023-03-15T09:59:32;30.40;;;9.38;;
32455;SDS011;18912;43.270;27.942;2023-03-15T10:02:03;27.88;;;12.43;;
32455;SDS011;18912;43.270;27.942;2023-03-15T10:04:47;19.98;;;10.00;;
32455;SDS011;18912;43.270;27.942;2023-03-15T10:07:16;25.80;;;13.25;;
32455;SDS011;18912;43.270;27.942;2023-03-15T10:09:41;16.33;;;9.13;;
32455;SDS011;18912;43.270;27.942;2023-03-15T10:12:11;30.98;;;13.20;;
32455;SDS011;18912;43.270;27.942;2023-03-15T10:17:18;29.73;;;15.18;;
32455;SDS011;18912;43.270;27.942;2023-03-15T10:19:57;37.53;;;11.90;;
32455;SDS011;18912;43.270;27.942;2023-03-15T10:22:33;31.45;;;12.48;;
32455;SDS011;18912;43.270;27.942;2023-03-15T10:30:25;40.35;;;16.52;;
32455;SDS011;18912;43.270;27.942;2023-03-15T10:32:55;24.83;;;13.13;;
32455;SDS011;18912;43.270;27.942;2023-03-15T10:35:23;37.50;;;13.50;;
32455;SDS011;18912;43.270;27.942;2023-03-15T10:37:50;36.38;;;18.85;;
32455;SDS011;18912;43.270;27.942;2023-03-15T10:40:15;31.00;;;15.87;;
32455;SDS011;18912;43.270;27.942;2023-03-15T10:43:20;33.28;;;15.00;;
32455;SDS011;18912;43.270;27.942;2023-03-15T10:48:27;36.92;;;15.98;;
32455;SDS011;18912;43.270;27.942;2023-03-15T10:50:54;33.15;;;13.57;;
32455;SDS011;18912;43.270;27.942;2023-03-15T10:53:20;27.38;;;15.02;;
32455;SDS011;18912;43.270;27.942;2023-03-15T10:55:46;29.07;;;12.47;;
32455;SDS011;18912;43.270;27.942;2023-03-15T10:58:20;30.08;;;13.63;;
32455;SDS011;18912;43.270;27.942;2023-03-15T11:00:58;27.40;;;13.45;;
32455;SDS011;18912;43.270;27.942;2023-03-15T11:03:24;30.42;;;12.80;;
32455;SDS011;18912;43.270;27.942;2023-03-15T11:05:51;23.70;;;11.00;;
32455;SDS011;18912;43.270;27.942;2023-03-15T11:08:20;32.28;;;12.45;;
32455;SDS011;18912;43.270;27.942;2023-03-15T11:10:54;21.38;;;11.40;;
32455;SDS011;18912;43.270;27.942;2023-03-15T11:13:22;16.88;;;10.77;;
32455;SDS011;18912;43.270;27.942;2023-03-15T11:18:19;25.50;;;11.10;;
32455;SDS011;18912;43.270;27.942;2023-03-15T11:20:50;26.48;;;11.00;;
32455;SDS011;18912;43.270;27.942;2023-03-15T11:23:21;36.30;;;14.00;;
32455;SDS011;18912;43.270;27.942;2023-03-15T11:25:52;26.60;;;11.32;;
32455;SDS011;18912;43.270;27.942;2023-03-15T11:28:20;23.38;;;11.60;;
32455;SDS011;18912;43.270;27.942;2023-03-15T11:30:49;24.85;;;11.52;;
32455;SDS011;18912;43.270;27.942;2023-03-15T11:34:01;20.83;;;10.17;;
32455;SDS011;18912;43.270;27.942;2023-03-15T11:36:09;23.58;;;10.20;;
32455;SDS011;18912;43.270;27.942;2023-03-15T11:38:40;26.02;;;10.13;;
32455;SDS011;18912;43.270;27.942;2023-03-15T11:41:13;23.92;;;9.65;;
32455;SDS011;18912;43.270;27.942;2023-03-15T11:43:51;26.50;;;10.45;;
32455;SDS011;18912;43.270;27.942;2023-03-15T11:46:27;27.25;;;11.35;;
32455;SDS011;18912;43.270;27.942;2023-03-15T11:51:47;23.13;;;11.63;;
32455;SDS011;18912;43.270;27.942;2023-03-15T11:54:14;35.13;;;12.35;;
32455;SDS011;18912;43.270;27.942;2023-03-15T11:59:11;36.47;;;14.43;;
32455;SDS011;18912;43.270;27.942;2023-03-15T12:01:47;27.48;;;13.80;;
32455;SDS011;18912;43.270;27.942;2023-03-15T12:06:56;23.70;;;11.02;;
32455;SDS011;18912;43.270;27.942;2023-03-15T12:12:03;25.98;;;9.35;;
32455;SDS011;18912;43.270;27.942;2023-03-15T12:17:49;23.83;;;11.65;;
32455;SDS011;18912;43.270;27.942;2023-03-15T12:20:38;21.33;;;11.20;;
32455;SDS011;18912;43.270;27.942;2023-03-15T12:23:11;23.58;;;11.93;;
32455;SDS011;18912;43.270;27.942;2023-03-15T12:28:38;31.33;;;10.57;;
32455;SDS011;18912;43.270;27.942;2023-03-15T12:31:09;25.55;;;11.05;;
32455;SDS011;18912;43.270;27.942;2023-03-15T12:33:45;29.55;;;10.68;;
32455;SDS011;18912;43.270;27.942;2023-03-15T12:36:20;30.15;;;12.65;;
32455;SDS011;18912;43.270;27.942;2023-03-15T12:39:18;30.48;;;11.30;;
32455;SDS011;18912;43.270;27.942;2023-03-15T12:41:47;25.38;;;11.02;;
32455;SDS011;18912;43.270;27.942;2023-03-15T12:44:23;34.92;;;13.65;;
32455;SDS011;18912;43.270;27.942;2023-03-15T12:47:01;24.08;;;12.23;;
32455;SDS011;18912;43.270;27.942;2023-03-15T12:52:01;54.83;;;21.05;;
32455;SDS011;18912;43.270;27.942;2023-03-15T12:54:44;44.28;;;18.48;;
32455;SDS011;18912;43.270;27.942;2023-03-15T12:57:24;29.70;;;14.25;;
32455;SDS011;18912;43.270;27.942;2023-03-15T12:59:53;28.08;;;13.02;;
32455;SDS011;18912;43.270;27.942;2023-03-15T13:04:47;29.00;;;14.73;;
32455;SDS011;18912;43.270;27.942;2023-03-15T13:07:22;29.83;;;12.38;;
32455;SDS011;18912;43.270;27.942;2023-03-15T13:10:00;24.98;;;11.95;;
32455;SDS011;18912;43.270;27.942;2023-03-15T13:12:49;28.00;;;13.02;;
32455;SDS011;18912;43.270;27.942;2023-03-15T13:15:30;31.30;;;12.27;;
32455;SDS011;18912;43.270;27.942;2023-03-15T13:18:23;34.15;;;12.68;;
32455;SDS011;18912;43.270;27.942;2023-03-15T13:20:59;24.20;;;11.98;;
32455;SDS011;18912;43.270;27.942;2023-03-15T13:23:43;24.45;;;11.77;;
32455;SDS011;18912;43.270;27.942;2023-03-15T13:29:25;26.58;;;11.82;;
32455;SDS011;18912;43.270;27.942;2023-03-15T13:32:26;28.77;;;12.30;;
32455;SDS011;18912;43.270;27.942;2023-03-15T13:34:46;34.80;;;12.38;;
32455;SDS011;18912;43.270;27.942;2023-03-15T13:37:23;29.08;;;12.70;;
32455;SDS011;18912;43.270;27.942;2023-03-15T13:39:59;22.05;;;11.40;;
32455;SDS011;18912;43.270;27.942;2023-03-15T13:42:27;36.60;;;13.88;;
32455;SDS011;18912;43.270;27.942;2023-03-15T13:47:42;28.95;;;13.50;;
32455;SDS011;18912;43.270;27.942;2023-03-15T13:50:17;27.45;;;14.20;;
32455;SDS011;18912;43.270;27.942;2023-03-15T13:52:44;29.15;;;13.98;;
32455;SDS011;18912;43.270;27.942;2023-03-15T13:55:11;32.25;;;12.65;;
32455;SDS011;18912;43.270;27.942;2023-03-15T13:57:44;41.20;;;17.60;;
32455;SDS011;18912;43.270;27.942;2023-03-15T14:00:11;31.50;;;14.13;;
32455;SDS011;18912;43.270;27.942;2023-03-15T14:05:07;21.80;;;11.43;;
32455;SDS011;18912;43.270;27.942;2023-03-15T14:07:46;36.15;;;16.75;;
32455;SDS011;18912;43.270;27.942;2023-03-15T14:12:45;25.98;;;11.48;;
32455;SDS011;18912;43.270;27.942;2023-03-15T14:17:59;28.35;;;11.55;;
32455;SDS011;18912;43.270;27.942;2023-03-15T14:20:34;38.30;;;14.40;;
32455;SDS011;18912;43.270;27.942;2023-03-15T14:23:12;25.08;;;11.93;;
32455;SDS011;18912;43.270;27.942;2023-03-15T14:25:40;38.80;;;12.90;;
32455;SDS011;18912;43.270;27.942;2023-03-15T14:28:10;31.17;;;12.40;;
32455;SDS011;18912;43.270;27.942;2023-03-15T14:30:39;33.92;;;12.13;;
32455;SDS011;18912;43.270;27.942;2023-03-15T14:33:05;39.13;;;12.17;;
32455;SDS011;18912;43.270;27.942;2023-03-15T14:40:31;36.03;;;13.38;;
32455;SDS011;18912;43.270;27.942;2023-03-15T14:43:02;37.45;;;15.35;;
32455;SDS011;18912;43.270;27.942;2023-03-15T14:47:59;35.67;;;15.13;;
32455;SDS011;18912;43.270;27.942;2023-03-15T14:50:32;37.58;;;14.77;;
32455;SDS011;18912;43.270;27.942;2023-03-15T14:53:03;35.42;;;13.63;;
32455;SDS011;18912;43.270;27.942;2023-03-15T14:55:32;41.45;;;16.05;;
32455;SDS011;18912;43.270;27.942;2023-03-15T14:58:08;31.80;;;14.93;;
32455;SDS011;18912;43.270;27.942;2023-03-15T15:03:03;44.47;;;19.77;;
32455;SDS011;18912;43.270;27.942;2023-03-15T15:05:39;44.60;;;21.00;;
32455;SDS011;18912;43.270;27.942;2023-03-15T15:08:10;59.15;;;26.00;;
32455;SDS011;18912;43.270;27.942;2023-03-15T15:10:41;62.92;;;29.30;;
32455;SDS011;18912;43.270;27.942;2023-03-15T15:13:25;68.55;;;32.17;;
32455;SDS011;18912;43.270;27.942;2023-03-15T15:15:52;62.28;;;32.50;;
32455;SDS011;18912;43.270;27.942;2023-03-15T15:18:19;69.20;;;37.05;;
32455;SDS011;18912;43.270;27.942;2023-03-15T15:20:45;48.95;;;22.27;;
32455;SDS011;18912;43.270;27.942;2023-03-15T15:23:12;80.57;;;37.83;;
32455;SDS011;18912;43.270;27.942;2023-03-15T15:25:41;46.67;;;22.67;;
32455;SDS011;18912;43.270;27.942;2023-03-15T15:28:07;39.63;;;18.70;;
32455;SDS011;18912;43.270;27.942;2023-03-15T15:30:33;34.23;;;14.30;;
32455;SDS011;18912;43.270;27.942;2023-03-15T15:32:58;38.83;;;17.10;;
32455;SDS011;18912;43.270;27.942;2023-03-15T15:35:24;39.60;;;18.97;;
32455;SDS011;18912;43.270;27.942;2023-03-15T15:37:51;41.17;;;20.70;;
32455;SDS011;18912;43.270;27.942;2023-03-15T15:40:21;32.23;;;13.13;;
32455;SDS011;18912;43.270;27.942;2023-03-15T15:42:50;46.92;;;22.73;;
32455;SDS011;18912;43.270;27.942;2023-03-15T15:45:16;51.60;;;23.43;;
32455;SDS011;18912;43.270;27.942;2023-03-15T15:47:42;50.53;;;24.95;;
32455;SDS011;18912;43.270;27.942;2023-03-15T15:50:12;52.53;;;23.23;;
32455;SDS011;18912;43.270;27.942;2023-03-15T15:52:40;49.42;;;21.45;;